Terminal Aerodrome Forecast
Issued by NWS Wilmington, NC

Home | Current Version | Previous Version | Text Only | Print | Product List | Glossary On
Versions: 1 2 3 4 5 6 7 8 9 10 11 12 13 14 15 16 17 18 19 20
643
FTUS42 KILM 280923 AAA
TAFLBT
TAF AMD
KLBT 280923Z 2809/2906 09006KT P6SM SCT005 SCT025 BKN060
     FM281300 11007KT 4SM -SHRA BR SCT005 OVC012
     FM281500 14006KT P6SM VCTS OVC025CB
     FM282200 13005KT P6SM VCTS OVC030CB
      TEMPO 2822/2901 3SM SHRA BR BKN025
     FM290100 14007KT P6SM VCTS SCT025CB OVC060=

USA.gov is the U.S. government's official web portal to all federal, state and local government web resources and services.